Terminal Aerodrome Forecast
Issued by NWS Rapid City, SD

Home | Current Version | Previous Version | Graphics & Text | Print | Product List | Glossary On
Versions: 1 2 3 4 5 6 7 8 9 10 11 12 13 14
000
FTUS43 KUNR 251120
TAFRAP
TAF
KRAP 251120Z 2512/2612 17008KT P6SM SKC
     FM251500 17016G26KT P6SM SCT080
     FM252200 16010KT P6SM -TSRA BKN050CB
     FM260200 17007KT P6SM SCT150=

USA.gov is the U.S. government's official web portal to all federal, state and local government web resources and services.